CheckWX is a tool to help pilots better visualize weather data.  It is not intended as a substitute for an official pre-flight weather briefing.

19:03:58 UTC

KHFJ METAR
Monett Regional Airport
Monett, Missouri, USA
Current

9 mins ago

KHFJ 201855Z AUTO 17015G23KT 10SM CLR 20/03 A2994 RMK AO2
Observed
Nov-20 @ 18:55 UTC
Wind
  • 170° at 15 KTS
  • Gusting to 23 KTS
Visibility
10 SM
Flight Rules
VFR
Cloud Levels
  • Clear skies
Temperature
20°C / 68°F
Dewpoint
C / 37°F
Humidity
33%
Altimeter
29.94" Hg
Pressure
1013.92 hPa
Previous

29 mins ago

KHFJ 201835Z AUTO 16013KT 10SM CLR 18/05 A2995 RMK AO2
Observed
Nov-20 @ 18:35 UTC
Wind
  • 160° at 13 KTS
Visibility
10 SM
Flight Rules
VFR
Cloud Levels
  • Clear skies
Temperature
18°C / 64°F
Dewpoint
C / 41°F
Humidity
43%
Altimeter
29.95" Hg
Pressure
1014.22 hPa
Previous

49 mins ago

KHFJ 201815Z AUTO 15012G19KT 10SM CLR 18/05 A2996 RMK AO2
Observed
Nov-20 @ 18:15 UTC
Wind
  • 150° at 12 KTS
  • Gusting to 19 KTS
Visibility
10 SM
Flight Rules
VFR
Cloud Levels
  • Clear skies
Temperature
18°C / 64°F
Dewpoint
C / 41°F
Humidity
43%
Altimeter
29.96" Hg
Pressure
1014.52 hPa